Time;durP1;ratioP1;P1;durP2;ratioP2;P2;SDS_P1;SDS_P2;PMS_P1;PMS_P2;Temp;Humidity;BMP_temperature;BMP_pressure;BME280_temperature;BME280_humidity;BME280_pressure;Samples;Min_cycle;Max_cycle;Signal;HPM_P1;HPM_P2
2022/01/25 00:08:26;;;;;;;5.95;5.25;;;;;;;17.33;44.83;103442.22;5102651;28;20035;-56
2022/01/25 00:24:19;;;;;;;5.78;5.20;;;;;;;17.31;44.71;103438.75;5101671;28;20089;-59
2022/01/25 00:25:05;;;;;;;5.50;5.00;;;;;;;17.29;44.79;103443.38;5099397;28;20047;-59
2022/01/25 00:27:47;;;;;;;6.13;5.53;;;;;;;17.29;44.73;103447.88;5102668;28;20451;-58
2022/01/25 00:30:32;;;;;;;5.72;5.22;;;;;;;17.28;44.78;103449.69;5101673;28;20032;-59
2022/01/25 00:32:57;;;;;;;5.25;4.75;;;;;;;17.29;44.62;103451.44;5099241;28;20043;-57
2022/01/25 00:35:23;;;;;;;5.60;5.10;;;;;;;17.28;44.77;103444.31;5101150;28;20028;-59
2022/01/25 00:37:48;;;;;;;5.72;4.95;;;;;;;17.26;44.77;103442.72;5101906;28;20036;-58
2022/01/25 00:40:13;;;;;;;5.88;5.30;;;;;;;17.27;44.72;103439.91;5101431;28;20036;-57
2022/01/25 00:42:39;;;;;;;5.55;5.05;;;;;;;17.27;44.64;103436.38;5102156;28;20030;-59
2022/01/25 00:45:04;;;;;;;5.70;5.20;;;;;;;17.26;44.72;103437.34;5101123;28;20040;-56
2022/01/25 00:47:29;;;;;;;5.75;5.15;;;;;;;17.25;44.68;103431.09;5102113;28;20040;-54
2022/01/25 00:49:55;;;;;;;5.57;4.95;;;;;;;17.24;44.65;103426.66;5101683;28;20031;-58
2022/01/25 00:54:47;;;;;;;6.00;5.38;;;;;;;17.23;44.88;103431.16;5101627;28;20032;-58
2022/01/25 00:57:12;;;;;;;6.30;5.28;;;;;;;17.23;44.64;103431.16;5101317;28;20070;-58
2022/01/25 00:59:37;;;;;;;5.50;5.00;;;;;;;17.23;44.49;103439.22;5100897;28;20454;-58
2022/01/25 01:02:11;;;;;;;5.72;5.22;;;;;;;17.22;44.73;103431.28;5101316;28;20039;-59
2022/01/25 01:04:36;;;;;;;5.38;4.88;;;;;;;17.21;44.64;103434.94;5100997;28;20051;-58
2022/01/25 01:07:05;;;;;;;5.65;5.15;;;;;;;17.21;44.60;103432.25;5101650;28;20088;-58
2022/01/25 01:09:33;;;;;;;;;;;;;;;17.16;44.64;103437.91;5102030;28;20102;-58
2022/01/25 01:12:07;;;;;;;5.50;4.90;;;;;;;17.16;44.56;103427.16;5101480;28;19908;-58
2022/01/25 01:31:00;;;;;;;5.47;4.97;;;;;;;17.10;45.08;103415.91;5099321;28;20023;-59
2022/01/25 01:33:51;;;;;;;6.13;5.38;;;;;;;17.10;44.74;103418.59;5097956;28;20028;-57
2022/01/25 01:41:52;;;;;;;5.25;4.75;;;;;;;17.08;44.54;103423.22;5097993;28;20016;-58
2022/01/25 01:44:23;;;;;;;5.93;5.32;;;;;;;17.08;44.52;103412.47;5102027;28;20024;-58
2022/01/25 01:46:58;;;;;;;5.75;5.20;;;;;;;17.05;44.53;103418.88;5102982;28;20027;-58
2022/01/25 01:49:25;;;;;;;5.38;4.88;;;;;;;17.06;44.41;103422.44;5102043;28;20395;-59
2022/01/25 01:51:51;;;;;;;5.45;4.95;;;;;;;17.06;44.69;103422.44;5101374;28;20040;-58
2022/01/25 01:54:16;;;;;;;5.38;4.88;;;;;;;17.04;44.50;103422.53;5098871;28;20039;-58
2022/01/25 01:56:43;;;;;;;5.60;5.10;;;;;;;17.03;44.53;103415.41;5098744;28;20067;-56
2022/01/25 01:59:12;;;;;;;5.35;4.85;;;;;;;17.03;44.58;103417.25;5101246;28;20028;-58
2022/01/25 02:01:39;;;;;;;5.68;5.18;;;;;;;17.01;44.45;103417.34;5101443;28;20028;-58
2022/01/25 02:04:07;;;;;;;5.45;4.85;;;;;;;17.01;44.52;103420.03;5101071;28;20105;-57
2022/01/25 02:06:32;;;;;;;5.82;5.22;;;;;;;17.00;44.55;103418.31;5100855;28;20024;-57
2022/01/25 02:08:58;;;;;;;5.78;5.28;;;;;;;16.99;44.58;103417.44;5101516;28;20054;-56
2022/01/25 02:11:23;;;;;;;5.93;5.40;;;;;;;16.98;44.53;103413.00;5102337;28;20024;-58
2022/01/25 02:13:49;;;;;;;5.32;4.82;;;;;;;16.95;44.65;103413.22;5104235;28;20046;-58
2022/01/25 02:16:31;;;;;;;5.43;4.93;;;;;;;16.95;44.72;103410.53;5104753;28;20500;-56
2022/01/25 02:24:25;;;;;;;5.47;4.97;;;;;;;16.93;44.50;103409.75;5104208;28;20083;-58
2022/01/25 02:26:55;;;;;;;5.60;5.10;;;;;;;16.93;44.55;103408.91;5103856;28;20032;-58
2022/01/25 02:29:20;;;;;;;5.65;4.78;;;;;;;16.91;44.60;103405.44;5104239;28;20040;-58
2022/01/25 02:31:45;;;;;;;5.55;5.05;;;;;;;16.90;44.61;103404.56;5104660;28;20034;-58
2022/01/25 02:34:10;;;;;;;5.78;5.25;;;;;;;16.89;44.63;103405.53;5104435;28;20115;-57
2022/01/25 02:36:36;;;;;;;5.78;5.15;;;;;;;16.89;44.69;103399.28;5104172;28;20036;-56
2022/01/25 02:39:01;;;;;;;5.97;5.38;;;;;;;16.86;44.64;103403.03;5104563;28;20088;-58
2022/01/25 02:41:27;;;;;;;6.00;5.40;;;;;;;16.87;44.59;103394.03;5104124;28;20016;-58
2022/01/25 02:43:53;;;;;;;5.70;5.20;;;;;;;16.86;44.57;103392.28;5104109;28;20080;-59
2022/01/25 02:49:04;;;;;;;5.50;5.03;;;;;;;16.83;44.51;103403.22;5103978;28;20032;-59
2022/01/25 02:51:41;;;;;;;5.75;5.25;;;;;;;16.83;44.68;103405.91;5104406;28;20027;-58
2022/01/25 02:54:08;;;;;;;5.60;5.10;;;;;;;16.83;44.45;103397.84;5101251;28;20055;-57
2022/01/25 02:56:35;;;;;;;6.22;5.63;;;;;;;16.81;44.73;103405.13;5103158;28;20069;-58
2022/01/25 02:59:00;;;;;;;5.85;5.28;;;;;;;16.80;44.47;103402.53;5103734;28;20051;-59
2022/01/25 03:01:26;;;;;;;5.75;5.18;;;;;;;16.78;44.52;103396.38;5104135;28;20032;-59
2022/01/25 03:03:51;;;;;;;6.00;5.40;;;;;;;16.79;44.63;103401.69;5103779;28;20032;-58
2022/01/25 03:06:19;;;;;;;5.40;4.90;;;;;;;16.77;44.76;103403.59;5103663;28;20048;-58
2022/01/25 03:08:44;;;;;;;5.60;5.10;;;;;;;16.78;44.55;103401.75;5103661;28;20123;-58
2022/01/25 03:11:10;;;;;;;6.03;5.43;;;;;;;16.77;44.62;103400.03;5103130;28;20028;-59
2022/01/25 03:13:48;;;;;;;6.00;5.35;;;;;;;16.73;44.51;103399.34;5103301;28;20067;-58
2022/01/25 03:16:20;;;;;;;5.55;5.05;;;;;;;16.76;44.67;103403.69;5103384;28;20043;-57
2022/01/25 03:18:47;;;;;;;6.15;5.55;;;;;;;16.72;44.59;103401.19;5103790;28;20031;-58
2022/01/25 03:21:20;;;;;;;5.32;4.82;;;;;;;16.68;44.78;103393.38;5103439;28;20056;-56
2022/01/25 03:23:46;;;;;;;5.93;5.32;;;;;;;16.71;44.65;103396.75;5102973;28;20028;-58
2022/01/25 03:26:11;;;;;;;5.18;4.68;;;;;;;16.71;44.68;103401.25;5102602;28;20043;-57
2022/01/25 03:28:36;;;;;;;5.50;5.00;;;;;;;16.70;44.73;103395.03;5085281;28;20023;-58
2022/01/25 03:31:02;;;;;;;5.60;5.10;;;;;;;16.70;44.70;103394.16;5102985;28;20447;-58
2022/01/25 03:33:27;;;;;;;5.85;5.30;;;;;;;16.69;44.60;103389.72;5103413;28;20106;-58
2022/01/25 03:35:53;;;;;;;5.82;5.32;;;;;;;16.68;44.70;103380.81;5103033;28;20047;-57
2022/01/25 03:38:18;;;;;;;5.78;5.22;;;;;;;16.67;44.70;103376.41;5103262;28;20025;-57
2022/01/25 03:40:45;;;;;;;5.38;4.88;;;;;;;16.68;44.54;103372.75;5102498;28;20039;-57
2022/01/25 03:43:11;;;;;;;5.85;5.00;;;;;;;16.63;44.69;103360.56;5103558;28;20027;-57
2022/01/25 03:45:39;;;;;;;5.05;4.63;;;;;;;16.64;44.69;103365.84;5101335;28;20061;-56
2022/01/25 03:50:43;;;;;;;5.68;5.18;;;;;;;16.66;44.62;103365.75;5103048;28;20036;-56
2022/01/25 03:53:10;;;;;;;5.68;5.13;;;;;;;16.64;44.62;103357.78;5103261;28;20088;-57
2022/01/25 03:55:36;;;;;;;5.40;4.90;;;;;;;16.64;44.72;103364.97;5101695;28;20606;-57
2022/01/25 03:58:01;;;;;;;5.53;5.03;;;;;;;16.63;44.51;103365.94;5102986;28;20547;-56
2022/01/25 04:00:26;;;;;;;4.97;4.53;;;;;;;16.60;44.62;103364.28;5102555;28;20117;-56
2022/01/25 04:03:01;;;;;;;5.68;5.07;;;;;;;16.59;44.63;103356.34;5103302;28;20728;-57
2022/01/25 04:05:50;;;;;;;5.40;4.90;;;;;;;16.61;44.68;103363.34;5101846;28;20388;-56
2022/01/25 04:08:13;;;;;;;5.22;4.75;;;;;;;16.60;44.81;103375.03;5102011;28;20031;-57
2022/01/25 04:10:39;;;;;;;5.35;4.80;;;;;;;16.59;44.67;103375.13;5101962;28;20035;-57
2022/01/25 04:13:05;;;;;;;5.30;4.78;;;;;;;16.58;44.63;103374.28;5102671;28;20028;-56
2022/01/25 04:15:30;;;;;;;5.80;5.20;;;;;;;16.58;44.80;103378.78;5102092;28;20024;-57
2022/01/25 04:18:13;;;;;;;5.63;5.13;;;;;;;16.58;44.62;103373.41;5102511;28;20028;-56
2022/01/25 04:20:40;;;;;;;6.03;5.43;;;;;;;16.58;44.64;103374.28;5102269;28;20020;-55
2022/01/25 04:25:49;;;;;;;5.45;4.95;;;;;;;16.56;44.48;103370.81;5100434;28;20031;-57
2022/01/25 04:28:14;;;;;;;5.43;4.93;;;;;;;16.56;44.70;103369.94;5102433;28;20020;-57
2022/01/25 04:30:39;;;;;;;5.70;5.20;;;;;;;16.54;44.46;103371.88;5101735;28;20032;-57
2022/01/25 04:33:17;;;;;;;5.78;5.18;;;;;;;16.53;44.54;103365.66;5102547;28;20035;-57
2022/01/25 04:35:55;;;;;;;4.97;4.47;;;;;;;16.49;44.69;103362.28;5100541;28;20064;-57
2022/01/25 04:49:21;;;;;;;5.60;4.90;;;;;;;16.52;44.52;103358.53;5100417;28;20408;-56
2022/01/25 04:51:58;;;;;;;5.10;4.60;;;;;;;16.53;44.49;103362.97;5102124;28;20032;-57
2022/01/25 04:59:52;;;;;;;5.43;4.93;;;;;;;16.53;44.53;103357.59;5101608;28;20036;-57
2022/01/25 05:02:30;;;;;;;5.50;5.00;;;;;;;16.51;44.50;103364.84;5102274;28;20032;-57
2022/01/25 05:05:04;;;;;;;5.45;4.72;;;;;;;16.51;44.44;103370.22;5101562;28;20024;-56
2022/01/25 05:07:54;;;;;;;5.40;4.90;;;;;;;16.52;44.46;103365.72;5101300;28;20024;-55
2022/01/25 05:10:19;;;;;;;5.47;4.97;;;;;;;16.51;44.37;103367.53;5101185;28;20587;-56
2022/01/25 05:12:50;;;;;;;4.88;4.47;;;;;;;16.51;44.46;103364.84;5102004;28;20049;-52
2022/01/25 05:18:04;;;;;;;4.68;4.28;;;;;;;16.53;44.35;103372.84;5102058;28;20088;-56
2022/01/25 05:23:14;;;;;;;5.00;4.50;;;;;;;16.50;44.27;103366.69;5101943;28;20066;-56
2022/01/25 05:25:39;;;;;;;5.47;4.97;;;;;;;16.51;44.35;103367.53;5100447;28;20036;-56
2022/01/25 05:28:05;;;;;;;5.47;4.95;;;;;;;16.52;44.28;103369.25;5101694;28;20067;-54
2022/01/25 05:30:30;;;;;;;5.82;5.25;;;;;;;16.52;44.28;103369.25;5101592;28;20032;-56
2022/01/25 05:32:55;;;;;;;5.40;4.90;;;;;;;16.52;44.63;103368.41;5101835;28;20050;-57
2022/01/25 05:35:20;;;;;;;5.25;4.75;;;;;;;16.52;44.28;103371.09;5100825;28;20032;-56
2022/01/25 05:37:45;;;;;;;5.40;4.90;;;;;;;16.51;44.42;103375.59;5101399;28;20058;-57
2022/01/25 05:40:16;;;;;;;5.30;4.80;;;;;;;16.50;44.33;103369.38;5100687;28;20083;-56
2022/01/25 05:42:48;;;;;;;6.07;5.22;;;;;;;16.51;44.12;103372.91;5101617;28;20481;-57
2022/01/25 05:45:59;;;;;;;5.00;4.60;;;;;;;16.50;44.30;103372.06;5100640;28;20024;-56
2022/01/25 05:48:02;;;;;;;5.00;4.50;;;;;;;16.53;44.35;103367.47;5079174;28;20126;-56
2022/01/25 05:50:27;;;;;;;4.78;4.38;;;;;;;16.53;44.29;103368.31;5105571;28;20023;-57
2022/01/25 05:52:52;;;;;;;4.63;4.22;;;;;;;16.49;44.35;103366.78;5105172;28;20460;-56
2022/01/25 05:55:18;;;;;;;5.75;5.25;;;;;;;16.52;44.32;103374.63;5104008;28;20052;-56
2022/01/25 05:57:43;;;;;;;5.43;4.85;;;;;;;16.53;44.34;103364.78;5101264;28;20024;-56
2022/01/25 06:00:09;;;;;;;5.30;4.80;;;;;;;16.50;44.34;103372.06;5101597;28;20119;-53
2022/01/25 06:02:36;;;;;;;5.43;4.93;;;;;;;16.53;44.47;103372.84;5104092;28;20114;-55
2022/01/25 06:05:02;;;;;;;5.22;4.72;;;;;;;16.53;44.45;103368.31;5101137;28;20597;-56
2022/01/25 06:07:27;;;;;;;5.43;4.75;;;;;;;16.53;44.41;103370.16;5097333;28;20024;-56
2022/01/25 06:09:53;;;;;;;5.32;4.82;;;;;;;16.54;44.42;103372.72;5103026;28;20031;-55
2022/01/25 06:12:18;;;;;;;5.18;4.68;;;;;;;16.52;44.36;103369.25;5099842;28;20024;-56
2022/01/25 06:14:43;;;;;;;5.05;4.55;;;;;;;16.51;44.46;103372.91;5103229;28;20495;-55
2022/01/25 06:17:08;;;;;;;5.32;4.78;;;;;;;16.54;44.46;103364.69;5102575;28;20023;-57
2022/01/25 06:19:34;;;;;;;5.05;4.57;;;;;;;16.54;44.61;103374.56;5101509;28;20028;-54
2022/01/25 06:21:59;;;;;;;5.30;4.78;;;;;;;16.55;44.53;103376.28;5097658;28;20020;-57
2022/01/25 06:24:24;;;;;;;4.80;4.30;;;;;;;16.55;44.58;103370.91;5102665;28;20028;-56
2022/01/25 06:26:50;;;;;;;5.05;4.55;;;;;;;16.55;44.80;103370.91;5103631;28;20156;-56
2022/01/25 06:29:18;;;;;;;5.30;4.80;;;;;;;16.53;44.68;103370.16;5103937;28;20027;-56
2022/01/25 06:31:44;;;;;;;5.45;4.95;;;;;;;16.54;44.69;103359.31;5104488;28;20048;-56
2022/01/25 06:34:09;;;;;;;5.10;4.60;;;;;;;16.55;44.72;103369.09;5103681;28;20028;-55
2022/01/25 06:36:34;;;;;;;4.80;4.40;;;;;;;16.55;45.07;103365.53;5102213;28;20681;-54
2022/01/25 06:38:59;;;;;;;5.20;4.70;;;;;;;16.55;44.78;103379.81;5104365;28;20610;-56
2022/01/25 06:41:25;;;;;;;5.15;4.65;;;;;;;16.55;44.77;103377.13;5103081;28;20051;-55
2022/01/25 06:43:50;;;;;;;5.50;5.00;;;;;;;16.55;44.75;103373.59;5100810;28;20043;-56
2022/01/25 06:46:15;;;;;;;4.72;4.32;;;;;;;16.55;44.75;103377.13;5102602;28;20070;-56
2022/01/25 06:48:41;;;;;;;5.35;4.85;;;;;;;16.55;44.79;103362.84;5106230;28;20035;-56
2022/01/25 06:51:06;;;;;;;5.45;4.95;;;;;;;16.52;44.83;103366.56;5087702;28;20028;-58
2022/01/25 06:53:31;;;;;;;5.28;4.78;;;;;;;16.55;44.79;103369.09;5086565;28;20038;-51
2022/01/25 06:55:57;;;;;;;5.57;5.07;;;;;;;16.52;44.84;103373.78;5099854;28;20093;-58
2022/01/25 06:58:22;;;;;;;5.80;5.20;;;;;;;16.54;44.92;103372.72;5101943;28;21671;-57
2022/01/25 07:00:47;;;;;;;5.80;5.30;;;;;;;16.54;44.99;103370.06;5103984;28;20045;-59
2022/01/25 07:03:12;;;;;;;5.30;4.78;;;;;;;16.54;45.01;103372.72;5104227;28;20028;-58
2022/01/25 07:05:38;;;;;;;5.25;4.75;;;;;;;16.54;45.05;103370.06;5103332;28;20458;-58
2022/01/25 07:08:04;;;;;;;4.93;4.43;;;;;;;16.54;45.14;103375.41;5104078;28;20106;-58
2022/01/25 07:10:29;;;;;;;5.15;4.68;;;;;;;16.56;45.11;103375.31;5103299;28;20028;-59
2022/01/25 07:12:54;;;;;;;5.07;4.57;;;;;;;16.56;45.10;103378.00;5104098;28;20039;-59
2022/01/25 07:15:20;;;;;;;5.78;5.18;;;;;;;16.56;45.27;103378.88;5103192;28;20035;-59
2022/01/25 07:17:45;;;;;;;5.55;5.05;;;;;;;16.57;45.20;103382.44;5103457;28;20024;-58
2022/01/25 07:20:11;;;;;;;4.88;4.40;;;;;;;16.58;45.26;103378.78;5103556;28;20043;-58
2022/01/25 07:22:37;;;;;;;6.38;5.78;;;;;;;16.59;45.24;103380.50;5103846;28;20036;-58
2022/01/25 07:25:04;;;;;;;5.65;4.82;;;;;;;16.59;45.26;103384.06;5102375;28;20552;-59
2022/01/25 07:27:29;;;;;;;5.78;5.28;;;;;;;16.59;45.30;103389.44;5102832;28;20050;-59
2022/01/25 07:29:54;;;;;;;7.43;6.50;;;;;;;16.62;45.20;103389.25;5102615;28;20040;-59
2022/01/25 07:32:20;;;;;;;7.40;6.65;;;;;;;16.65;45.18;103382.81;5103059;28;20043;-59
2022/01/25 07:34:45;;;;;;;8.13;7.30;;;;;;;16.69;45.24;103392.41;5099957;28;20027;-50
2022/01/25 07:37:10;;;;;;;8.60;7.72;;;;;;;16.72;45.11;103387.75;5090743;28;20102;-58
2022/01/25 07:39:36;;;;;;;7.85;7.05;;;;;;;16.75;45.07;103397.47;5098123;28;20446;-59
2022/01/25 07:42:01;;;;;;;7.55;6.68;;;;;;;16.77;45.11;103391.97;5101790;28;20032;-59
2022/01/25 07:44:30;;;;;;;8.23;7.43;;;;;;;16.78;45.01;103391.00;5102452;28;20036;-59
2022/01/25 07:47:01;;;;;;;7.65;6.80;;;;;;;16.81;45.08;103398.91;5102067;28;20047;-59
2022/01/25 07:49:30;;;;;;;8.63;7.75;;;;;;;16.82;44.88;103395.25;5102362;28;20035;-58
2022/01/25 07:51:56;;;;;;;8.90;8.00;;;;;;;16.81;44.98;103389.00;5102856;28;20034;-59
2022/01/25 07:54:21;;;;;;;9.18;8.27;;;;;;;16.84;44.87;103385.28;5102299;28;20031;-58
2022/01/25 07:56:47;;;;;;;8.38;7.57;;;;;;;16.83;44.90;103389.78;5101749;28;20102;-57
2022/01/25 07:59:12;;;;;;;8.82;7.93;;;;;;;16.84;44.77;103391.50;5102164;28;20070;-59
2022/01/25 08:01:38;;;;;;;8.13;7.32;;;;;;;16.86;44.83;103386.03;5102320;28;20024;-59
2022/01/25 08:04:03;;;;;;;9.13;7.95;;;;;;;16.87;44.85;103394.03;5102398;28;20079;-59
2022/01/25 08:06:28;;;;;;;8.23;7.43;;;;;;;16.87;44.69;103387.78;5082890;28;20119;-59
2022/01/25 08:08:54;;;;;;;8.23;7.43;;;;;;;16.88;44.53;103395.75;5101875;28;20056;-59
2022/01/25 08:11:20;;;;;;;8.73;7.82;;;;;;;16.90;44.63;103396.50;5101834;28;20028;-59
2022/01/25 08:13:49;;;;;;;8.77;7.80;;;;;;;16.89;44.73;103397.47;5102273;28;20031;-58
2022/01/25 08:16:15;;;;;;;8.10;7.28;;;;;;;16.91;44.59;103390.19;5101651;28;20032;-59
2022/01/25 08:18:40;;;;;;;8.65;7.80;;;;;;;16.91;44.52;103392.88;5101914;28;20024;-59
2022/01/25 08:21:05;;;;;;;8.15;7.35;;;;;;;16.92;44.66;103388.38;5097782;28;20055;-58
2022/01/25 08:23:31;;;;;;;9.68;7.97;;;;;;;16.92;44.56;103391.91;5101188;28;20103;-59
2022/01/25 08:25:56;;;;;;;8.60;7.70;;;;;;;16.90;44.48;103388.44;5100361;28;20028;-59
2022/01/25 08:28:21;;;;;;;8.48;7.60;;;;;;;16.92;44.52;103391.06;5102106;28;20039;-56
2022/01/25 08:30:47;;;;;;;8.35;7.53;;;;;;;16.93;44.47;103398.16;5097808;28;20028;-59
2022/01/25 08:33:12;;;;;;;8.18;7.30;;;;;;;16.93;44.40;103387.41;5102210;28;20543;-59
2022/01/25 08:35:37;;;;;;;8.40;7.60;;;;;;;16.94;44.35;103389.13;5100960;28;20524;-58
2022/01/25 08:38:03;;;;;;;7.60;6.80;;;;;;;16.89;44.20;103378.66;5101458;28;20583;-59
2022/01/25 08:40:30;;;;;;;7.97;7.15;;;;;;;16.93;44.19;103385.56;5100928;28;20307;-58
2022/01/25 08:42:56;;;;;;;7.65;6.88;;;;;;;16.95;44.03;103385.50;5102204;28;20084;-58
2022/01/25 08:45:21;;;;;;;7.35;6.60;;;;;;;16.94;44.05;103392.66;5097307;28;20023;-57
2022/01/25 08:47:46;;;;;;;8.35;7.55;;;;;;;16.93;44.06;103396.31;5100371;28;20012;-60
2022/01/25 08:50:12;;;;;;;8.10;7.30;;;;;;;16.92;44.20;103391.91;5100796;28;20036;-59
2022/01/25 08:52:37;;;;;;;8.38;7.57;;;;;;;16.94;44.35;103397.19;5101819;28;20106;-60
2022/01/25 08:55:04;;;;;;;9.02;8.07;;;;;;;16.95;44.36;103401.63;5098478;28;20028;-57
2022/01/25 08:57:29;;;;;;;8.43;7.63;;;;;;;16.94;44.46;103395.34;5098904;28;20054;-59
2022/01/25 08:59:54;;;;;;;8.52;7.70;;;;;;;16.96;44.48;103400.66;5097440;28;20111;-59
2022/01/25 09:02:19;;;;;;;9.10;7.90;;;;;;;16.95;44.30;103404.31;5101823;28;20024;-60
2022/01/25 09:04:45;;;;;;;9.25;8.25;;;;;;;16.97;44.62;103411.28;5101484;28;20465;-59
2022/01/25 09:07:10;;;;;;;8.20;7.40;;;;;;;16.98;44.64;103406.78;5101029;28;20027;-59
2022/01/25 09:09:35;;;;;;;8.38;7.57;;;;;;;16.98;44.58;103406.78;5099184;28;20042;-59
2022/01/25 09:12:01;;;;;;;8.85;8.05;;;;;;;16.97;44.71;103411.28;5098700;28;20576;-59
2022/01/25 09:14:26;;;;;;;9.73;8.73;;;;;;;16.98;44.52;103413.00;5100816;28;20553;-58
2022/01/25 09:16:51;;;;;;;8.55;7.75;;;;;;;16.99;44.54;103408.50;5101011;28;20122;-59
2022/01/25 09:19:16;;;;;;;9.68;8.48;;;;;;;17.00;44.53;103410.25;5096396;28;20024;-58
2022/01/25 09:21:42;;;;;;;9.10;8.20;;;;;;;17.01;44.61;103416.50;5097428;28;20067;-59
2022/01/25 09:24:08;;;;;;;9.60;8.63;;;;;;;17.02;44.77;103412.84;5100955;28;20058;-58
2022/01/25 09:26:34;;;;;;;8.45;7.65;;;;;;;17.06;44.88;103411.69;5099951;28;20020;-60
2022/01/25 09:28:59;;;;;;;9.20;8.10;;;;;;;17.07;44.65;103413.41;5101330;28;20035;-59
2022/01/25 09:31:25;;;;;;;8.55;7.65;;;;;;;17.11;44.73;103417.63;5100786;28;20520;-57
2022/01/25 09:33:51;;;;;;;9.07;7.75;;;;;;;17.11;44.66;103418.50;5101790;28;20105;-59
2022/01/25 09:36:17;;;;;;;9.50;8.27;;;;;;;17.14;44.63;103421.00;5098535;28;20243;-57
2022/01/25 09:38:42;;;;;;;8.40;7.53;;;;;;;17.17;44.71;103419.94;5098167;28;20040;-59
2022/01/25 09:41:07;;;;;;;9.18;7.78;;;;;;;17.19;44.62;103420.72;5099941;28;20039;-60
2022/01/25 09:43:32;;;;;;;8.07;7.28;;;;;;;17.19;44.47;103410.81;5101177;28;20031;-58
2022/01/25 09:45:58;;;;;;;10.15;7.95;;;;;;;17.22;44.61;103421.38;5099616;28;20503;-59
2022/01/25 09:48:23;;;;;;;8.60;7.75;;;;;;;17.24;44.53;103415.91;5099326;28;20048;-59
2022/01/25 09:50:49;;;;;;;8.27;7.45;;;;;;;17.23;44.45;103414.19;5081565;28;20023;-59
2022/01/25 09:53:14;;;;;;;9.43;8.55;;;;;;;17.27;44.61;103423.78;5080637;28;20016;-58
2022/01/25 09:55:41;;;;;;;8.90;8.00;;;;;;;17.30;44.25;103423.59;5099040;28;20524;-59
2022/01/25 09:58:08;;;;;;;8.35;7.43;;;;;;;17.32;44.31;103429.72;5100198;28;20076;-59
2022/01/25 10:00:35;;;;;;;8.68;7.88;;;;;;;17.34;44.32;103435.03;5099581;28;20180;-59
2022/01/25 10:03:10;;;;;;;9.05;8.15;;;;;;;17.36;44.39;103430.41;5098167;28;20020;-59
2022/01/25 10:05:42;;;;;;;9.30;8.32;;;;;;;17.38;44.26;103436.56;5094759;28;20052;-58
2022/01/25 10:08:21;;;;;;;8.20;7.35;;;;;;;17.38;44.17;103431.19;5096307;28;20028;-59
2022/01/25 10:10:54;;;;;;;8.32;7.43;;;;;;;17.37;44.17;103429.44;5099426;28;20419;-58
2022/01/25 10:13:23;;;;;;;8.68;7.88;;;;;;;17.38;44.17;103429.34;5100433;28;20034;-59
2022/01/25 10:16:07;;;;;;;8.80;7.90;;;;;;;17.39;44.18;103433.75;5099121;28;20024;-59
2022/01/25 10:18:50;;;;;;;8.48;7.45;;;;;;;17.41;44.16;103436.34;5097791;28;20038;-59
2022/01/25 10:21:24;;;;;;;9.18;7.82;;;;;;;17.30;43.98;103423.59;5100610;28;20080;-59
2022/01/25 10:24:06;;;;;;;8.07;7.25;;;;;;;17.43;44.08;103447.88;5100746;28;20084;-59
2022/01/25 10:26:34;;;;;;;8.07;7.28;;;;;;;17.41;43.93;103447.09;5096269;28;20054;-58
2022/01/25 10:28:59;;;;;;;8.65;7.75;;;;;;;17.41;43.96;103453.34;5082421;28;20080;-59
2022/01/25 10:31:39;;;;;;;8.93;8.02;;;;;;;17.43;43.84;103464.88;5100375;28;20190;-58
2022/01/25 10:34:07;;;;;;;8.52;7.63;;;;;;;17.38;43.79;103458.06;5101155;28;20031;-56
2022/01/25 10:36:32;;;;;;;9.50;8.25;;;;;;;17.43;43.76;103459.50;5102059;28;20032;-58
2022/01/25 10:38:58;;;;;;;8.68;7.80;;;;;;;17.44;43.75;103453.16;5104056;28;20050;-59
2022/01/25 10:41:26;;;;;;;8.30;7.50;;;;;;;17.43;43.65;103455.94;5103270;28;20028;-59
2022/01/25 10:43:54;;;;;;;7.93;7.23;;;;;;;17.43;43.59;103456.81;5104038;28;20044;-59
2022/01/25 10:46:31;;;;;;;8.50;7.63;;;;;;;17.44;43.68;103465.75;5102983;28;20383;-59
2022/01/25 10:49:01;;;;;;;7.60;6.80;;;;;;;17.43;43.54;103464.03;5099911;28;20109;-58
2022/01/25 10:51:33;;;;;;;8.35;7.50;;;;;;;17.43;43.68;103464.03;5099807;28;20118;-59
2022/01/25 10:54:05;;;;;;;8.63;7.28;;;;;;;17.45;43.68;103468.31;5101960;28;20059;-59
2022/01/25 10:56:43;;;;;;;7.88;7.07;;;;;;;17.45;43.62;103464.78;5099077;28;20071;-59
2022/01/25 10:59:15;;;;;;;8.35;7.50;;;;;;;17.46;43.60;103463.84;5103504;28;20048;-59
2022/01/25 11:01:55;;;;;;;8.35;7.45;;;;;;;17.47;43.54;103468.25;5103052;28;20028;-58
2022/01/25 11:04:34;;;;;;;8.23;7.43;;;;;;;17.48;43.65;103473.53;5102797;28;20105;-59
2022/01/25 11:07:18;;;;;;;;;;;;;;;17.45;43.70;103470.16;5101020;28;20016;-57
2022/01/25 11:09:47;;;;;;;8.20;7.32;;;;;;;17.48;43.54;103464.59;5101950;28;19916;-59
2022/01/25 11:12:18;;;;;;;9.02;8.13;;;;;;;17.50;43.39;103468.06;5102184;28;20028;-59
2022/01/25 11:14:50;;;;;;;8.07;7.25;;;;;;;17.51;43.55;103466.22;5102849;28;20592;-58
2022/01/25 11:17:34;;;;;;;8.68;7.78;;;;;;;17.54;43.64;103466.00;5102098;28;20050;-59
2022/01/25 11:20:01;;;;;;;9.18;7.82;;;;;;;17.50;43.46;103449.22;5099678;28;20028;-59
2022/01/25 11:22:28;;;;;;;7.80;7.00;;;;;;;17.57;43.43;103452.38;5101482;28;20024;-58
2022/01/25 11:25:01;;;;;;;8.32;7.05;;;;;;;17.58;43.48;103446.88;5100102;28;20063;-58
2022/01/25 11:27:29;;;;;;;8.23;7.28;;;;;;;17.60;43.36;103444.97;5103164;28;20012;-58
2022/01/25 11:29:57;;;;;;;8.25;7.28;;;;;;;17.62;43.48;103440.34;5102594;28;20027;-57
2022/01/25 11:32:26;;;;;;;7.85;7.03;;;;;;;17.64;43.41;103448.34;5096746;28;20070;-57
2022/01/25 11:34:52;;;;;;;8.82;7.93;;;;;;;17.66;43.38;103441.03;5077052;28;20038;-58
2022/01/25 11:37:18;;;;;;;7.93;7.13;;;;;;;17.67;43.51;103440.06;5081821;28;20028;-59
2022/01/25 11:39:49;;;;;;;9.25;7.47;;;;;;;17.69;43.25;103440.84;5075238;28;20085;-58
2022/01/25 11:42:18;;;;;;;8.77;7.80;;;;;;;17.69;43.40;103440.84;5098876;28;20039;-59
2022/01/25 11:44:50;;;;;;;8.32;7.35;;;;;;;17.71;43.25;103438.88;5100691;28;20428;-59
2022/01/25 11:47:17;;;;;;;8.02;6.97;;;;;;;17.71;43.21;103423.63;5100510;28;20040;-60
2022/01/25 11:49:51;;;;;;;8.88;7.90;;;;;;;17.73;43.20;103428.91;5105691;28;20036;-58
2022/01/25 11:52:17;;;;;;;9.95;8.02;;;;;;;17.72;43.24;103421.81;5105113;28;20028;-59
2022/01/25 11:54:44;;;;;;;10.65;8.32;;;;;;;17.74;43.24;103428.84;5103548;28;20032;-59
2022/01/25 11:57:14;;;;;;;9.27;7.78;;;;;;;17.75;43.17;103427.00;5102797;28;20044;-59
2022/01/25 11:59:39;;;;;;;10.68;7.95;;;;;;;17.71;43.09;103412.88;5103412;28;20097;-59
2022/01/25 12:02:05;;;;;;;8.98;7.55;;;;;;;17.76;43.30;103426.06;5102918;28;20043;-55
2022/01/25 12:04:30;;;;;;;9.38;7.78;;;;;;;17.77;43.12;103426.91;5103115;28;20040;-58
2022/01/25 12:07:11;;;;;;;8.85;6.95;;;;;;;17.77;43.03;103421.53;5102434;28;20031;-58
2022/01/25 12:10:04;;;;;;;9.30;8.10;;;;;;;17.73;43.16;103415.47;5102041;28;20058;-58
2022/01/25 12:12:29;;;;;;;10.60;7.90;;;;;;;17.78;43.12;103415.19;5082079;28;20103;-60
2022/01/25 12:14:56;;;;;;;8.25;7.15;;;;;;;17.78;43.33;103417.88;5099653;28;20028;-53
2022/01/25 12:17:26;;;;;;;7.80;6.97;;;;;;;17.67;43.11;103389.81;5100000;28;20081;-59
2022/01/25 12:19:58;;;;;;;7.88;7.07;;;;;;;17.79;43.12;103408.84;5101372;28;20802;-60
2022/01/25 12:22:47;;;;;;;9.40;7.72;;;;;;;17.80;43.21;103405.16;5097532;28;20031;-60
2022/01/25 12:28:05;;;;;;;8.60;7.28;;;;;;;17.80;43.36;103398.00;5098566;28;20023;-59
2022/01/25 12:30:49;;;;;;;13.18;7.60;;;;;;;17.81;43.18;103394.31;5100704;28;20444;-61
2022/01/25 12:33:25;;;;;;;10.57;8.10;;;;;;;17.81;43.48;103398.84;5098237;28;20051;-59
2022/01/25 12:35:59;;;;;;;9.35;7.97;;;;;;;17.81;43.25;103396.16;5098860;28;20107;-60
2022/01/25 12:38:43;;;;;;;9.65;7.35;;;;;;;17.82;43.50;103398.75;5094599;28;20496;-59
2022/01/25 12:41:13;;;;;;;7.60;6.82;;;;;;;17.81;43.45;103397.03;5096910;28;20042;-59
2022/01/25 12:43:44;;;;;;;8.07;6.72;;;;;;;17.82;43.56;103401.44;5100372;28;20487;-60
2022/01/25 12:46:12;;;;;;;8.35;6.85;;;;;;;17.81;43.34;103394.31;5099087;28;20039;-60
2022/01/25 12:48:48;;;;;;;7.70;6.90;;;;;;;17.82;43.57;103390.66;5099622;28;20027;-60
2022/01/25 12:51:25;;;;;;;9.05;7.57;;;;;;;17.81;43.57;103390.78;5098554;28;20141;-60
2022/01/25 12:53:53;;;;;;;8.55;6.97;;;;;;;17.81;43.42;103391.63;5098247;28;20023;-60